sensor_id;sensor_type;location;lat;lon;timestamp;temperature;humidity
7900;DHT22;3995;50.856;4.404;2023-10-19T00:02:49;18.10;72.00
7900;DHT22;3995;50.856;4.404;2023-10-19T00:05:17;18.10;71.90
7900;DHT22;3995;50.856;4.404;2023-10-19T00:07:45;18.10;71.90
7900;DHT22;3995;50.856;4.404;2023-10-19T00:10:12;18.10;71.90
7900;DHT22;3995;50.856;4.404;2023-10-19T00:12:41;18.10;71.80
7900;DHT22;3995;50.856;4.404;2023-10-19T00:15:10;18.10;71.70
7900;DHT22;3995;50.856;4.404;2023-10-19T00:17:38;18.10;71.60
7900;DHT22;3995;50.856;4.404;2023-10-19T00:20:07;18.20;71.60
7900;DHT22;3995;50.856;4.404;2023-10-19T00:22:48;18.20;71.50
7900;DHT22;3995;50.856;4.404;2023-10-19T00:25:18;18.10;71.50
7900;DHT22;3995;50.856;4.404;2023-10-19T00:27:49;18.20;71.50
7900;DHT22;3995;50.856;4.404;2023-10-19T00:30:16;18.20;71.50
7900;DHT22;3995;50.856;4.404;2023-10-19T00:32:46;18.20;71.50
7900;DHT22;3995;50.856;4.404;2023-10-19T00:35:16;18.20;71.50
7900;DHT22;3995;50.856;4.404;2023-10-19T00:37:55;18.20;71.30
7900;DHT22;3995;50.856;4.404;2023-10-19T00:40:42;18.20;71.30
7900;DHT22;3995;50.856;4.404;2023-10-19T00:43:13;18.20;71.40
7900;DHT22;3995;50.856;4.404;2023-10-19T00:45:43;18.20;71.40
7900;DHT22;3995;50.856;4.404;2023-10-19T00:48:12;18.20;71.40
7900;DHT22;3995;50.856;4.404;2023-10-19T00:50:41;18.20;71.30
7900;DHT22;3995;50.856;4.404;2023-10-19T00:53:10;18.20;71.20
7900;DHT22;3995;50.856;4.404;2023-10-19T00:55:38;18.20;71.20
7900;DHT22;3995;50.856;4.404;2023-10-19T00:58:07;18.20;71.20
7900;DHT22;3995;50.856;4.404;2023-10-19T01:00:38;18.20;71.90
7900;DHT22;3995;50.856;4.404;2023-10-19T01:03:11;18.20;71.10
7900;DHT22;3995;50.856;4.404;2023-10-19T01:05:44;18.20;71.10
7900;DHT22;3995;50.856;4.404;2023-10-19T01:08:15;18.20;71.10
7900;DHT22;3995;50.856;4.404;2023-10-19T01:10:50;18.20;71.00
7900;DHT22;3995;50.856;4.404;2023-10-19T01:13:19;18.20;71.00
7900;DHT22;3995;50.856;4.404;2023-10-19T01:15:53;18.20;70.90
7900;DHT22;3995;50.856;4.404;2023-10-19T01:18:20;18.20;70.90
7900;DHT22;3995;50.856;4.404;2023-10-19T01:20:49;18.20;70.90
7900;DHT22;3995;50.856;4.404;2023-10-19T01:23:19;18.20;70.90
7900;DHT22;3995;50.856;4.404;2023-10-19T01:25:52;18.20;70.90
7900;DHT22;3995;50.856;4.404;2023-10-19T01:28:27;18.20;70.90
7900;DHT22;3995;50.856;4.404;2023-10-19T01:31:08;18.20;70.90
7900;DHT22;3995;50.856;4.404;2023-10-19T01:33:40;18.20;70.80
7900;DHT22;3995;50.856;4.404;2023-10-19T01:36:09;18.20;70.90
7900;DHT22;3995;50.856;4.404;2023-10-19T01:38:41;18.20;70.80
7900;DHT22;3995;50.856;4.404;2023-10-19T01:41:09;18.20;70.80
7900;DHT22;3995;50.856;4.404;2023-10-19T01:43:41;18.20;70.70
7900;DHT22;3995;50.856;4.404;2023-10-19T01:46:08;18.20;70.70
7900;DHT22;3995;50.856;4.404;2023-10-19T01:48:38;18.20;70.70
7900;DHT22;3995;50.856;4.404;2023-10-19T01:51:07;18.20;70.60
7900;DHT22;3995;50.856;4.404;2023-10-19T01:53:37;18.20;70.60
7900;DHT22;3995;50.856;4.404;2023-10-19T01:56:06;18.20;70.60
7900;DHT22;3995;50.856;4.404;2023-10-19T01:58:36;18.30;70.60
7900;DHT22;3995;50.856;4.404;2023-10-19T02:01:02;18.20;70.50
7900;DHT22;3995;50.856;4.404;2023-10-19T02:03:34;18.30;70.60
7900;DHT22;3995;50.856;4.404;2023-10-19T02:06:01;18.30;70.50
7900;DHT22;3995;50.856;4.404;2023-10-19T02:08:36;18.20;70.40
7900;DHT22;3995;50.856;4.404;2023-10-19T02:11:06;18.20;70.50
7900;DHT22;3995;50.856;4.404;2023-10-19T02:13:45;18.20;70.40
7900;DHT22;3995;50.856;4.404;2023-10-19T02:16:12;18.20;70.40
7900;DHT22;3995;50.856;4.404;2023-10-19T02:18:42;18.20;70.40
7900;DHT22;3995;50.856;4.404;2023-10-19T02:21:08;18.20;70.30
7900;DHT22;3995;50.856;4.404;2023-10-19T02:23:38;18.20;70.40
7900;DHT22;3995;50.856;4.404;2023-10-19T02:26:06;18.20;70.40
7900;DHT22;3995;50.856;4.404;2023-10-19T02:28:33;18.20;70.30
7900;DHT22;3995;50.856;4.404;2023-10-19T02:31:03;18.20;70.30
7900;DHT22;3995;50.856;4.404;2023-10-19T02:33:41;18.20;70.30
7900;DHT22;3995;50.856;4.404;2023-10-19T02:36:11;18.20;70.40
7900;DHT22;3995;50.856;4.404;2023-10-19T02:38:40;18.20;70.40
7900;DHT22;3995;50.856;4.404;2023-10-19T02:41:10;18.20;70.30
7900;DHT22;3995;50.856;4.404;2023-10-19T02:43:37;18.20;70.30
7900;DHT22;3995;50.856;4.404;2023-10-19T02:46:04;18.20;70.30
7900;DHT22;3995;50.856;4.404;2023-10-19T02:48:31;18.20;70.30
7900;DHT22;3995;50.856;4.404;2023-10-19T02:50:57;18.20;70.30
7900;DHT22;3995;50.856;4.404;2023-10-19T02:53:32;18.20;70.30
7900;DHT22;3995;50.856;4.404;2023-10-19T02:56:11;18.20;70.30
7900;DHT22;3995;50.856;4.404;2023-10-19T02:58:41;18.20;70.20
7900;DHT22;3995;50.856;4.404;2023-10-19T03:01:16;18.20;70.30
7900;DHT22;3995;50.856;4.404;2023-10-19T03:03:48;18.20;70.30
7900;DHT22;3995;50.856;4.404;2023-10-19T03:06:18;18.20;70.30
7900;DHT22;3995;50.856;4.404;2023-10-19T03:08:46;18.20;70.30
7900;DHT22;3995;50.856;4.404;2023-10-19T03:11:14;18.20;70.30
7900;DHT22;3995;50.856;4.404;2023-10-19T03:13:42;18.20;70.30
7900;DHT22;3995;50.856;4.404;2023-10-19T03:16:09;18.20;70.30
7900;DHT22;3995;50.856;4.404;2023-10-19T03:18:36;18.20;70.30
7900;DHT22;3995;50.856;4.404;2023-10-19T03:21:04;18.20;70.30
7900;DHT22;3995;50.856;4.404;2023-10-19T03:23:31;18.20;70.30
7900;DHT22;3995;50.856;4.404;2023-10-19T03:26:00;18.20;70.30
7900;DHT22;3995;50.856;4.404;2023-10-19T03:28:50;18.20;70.30
7900;DHT22;3995;50.856;4.404;2023-10-19T03:31:21;18.20;70.30
7900;DHT22;3995;50.856;4.404;2023-10-19T03:33:48;18.20;70.30
7900;DHT22;3995;50.856;4.404;2023-10-19T03:36:20;18.20;70.30
7900;DHT22;3995;50.856;4.404;2023-10-19T03:38:47;18.20;70.30
7900;DHT22;3995;50.856;4.404;2023-10-19T03:41:15;18.20;70.30
7900;DHT22;3995;50.856;4.404;2023-10-19T03:43:47;18.20;70.20
7900;DHT22;3995;50.856;4.404;2023-10-19T03:46:15;18.20;70.30
7900;DHT22;3995;50.856;4.404;2023-10-19T03:48:48;18.20;70.20
7900;DHT22;3995;50.856;4.404;2023-10-19T03:51:15;18.20;70.30
7900;DHT22;3995;50.856;4.404;2023-10-19T03:53:43;18.20;70.30
7900;DHT22;3995;50.856;4.404;2023-10-19T03:56:14;18.20;70.30
7900;DHT22;3995;50.856;4.404;2023-10-19T03:58:43;18.20;70.30
7900;DHT22;3995;50.856;4.404;2023-10-19T04:01:13;18.20;70.20
7900;DHT22;3995;50.856;4.404;2023-10-19T04:03:43;18.20;70.30
7900;DHT22;3995;50.856;4.404;2023-10-19T04:06:10;18.20;70.20
7900;DHT22;3995;50.856;4.404;2023-10-19T04:08:40;18.20;70.20
7900;DHT22;3995;50.856;4.404;2023-10-19T04:11:09;18.20;70.20
7900;DHT22;3995;50.856;4.404;2023-10-19T04:13:38;18.20;70.20
7900;DHT22;3995;50.856;4.404;2023-10-19T04:16:05;18.20;70.20
7900;DHT22;3995;50.856;4.404;2023-10-19T04:18:35;18.20;70.20
7900;DHT22;3995;50.856;4.404;2023-10-19T04:21:07;18.20;70.30
7900;DHT22;3995;50.856;4.404;2023-10-19T04:23:34;18.30;70.30
7900;DHT22;3995;50.856;4.404;2023-10-19T04:26:03;18.30;70.30
7900;DHT22;3995;50.856;4.404;2023-10-19T04:28:37;18.30;70.30
7900;DHT22;3995;50.856;4.404;2023-10-19T04:31:15;18.30;70.30
7900;DHT22;3995;50.856;4.404;2023-10-19T04:33:45;18.30;70.30
7900;DHT22;3995;50.856;4.404;2023-10-19T04:36:17;18.20;70.30
7900;DHT22;3995;50.856;4.404;2023-10-19T04:38:47;18.30;70.30
7900;DHT22;3995;50.856;4.404;2023-10-19T04:41:14;18.30;70.30
7900;DHT22;3995;50.856;4.404;2023-10-19T04:43:41;18.30;70.30
7900;DHT22;3995;50.856;4.404;2023-10-19T04:46:15;18.30;70.40
7900;DHT22;3995;50.856;4.404;2023-10-19T04:48:44;18.20;70.30
7900;DHT22;3995;50.856;4.404;2023-10-19T04:51:11;18.20;70.90
7900;DHT22;3995;50.856;4.404;2023-10-19T04:53:39;18.30;70.40
7900;DHT22;3995;50.856;4.404;2023-10-19T04:56:08;18.30;70.40
7900;DHT22;3995;50.856;4.404;2023-10-19T04:58:38;18.30;70.50
7900;DHT22;3995;50.856;4.404;2023-10-19T05:01:05;18.30;70.50
7900;DHT22;3995;50.856;4.404;2023-10-19T05:03:32;18.30;71.20
7900;DHT22;3995;50.856;4.404;2023-10-19T05:06:00;18.30;70.50
7900;DHT22;3995;50.856;4.404;2023-10-19T05:08:27;18.30;70.40
7900;DHT22;3995;50.856;4.404;2023-10-19T05:10:57;18.30;70.50
7900;DHT22;3995;50.856;4.404;2023-10-19T05:13:25;18.30;70.60
7900;DHT22;3995;50.856;4.404;2023-10-19T05:15:52;18.30;70.60
7900;DHT22;3995;50.856;4.404;2023-10-19T05:18:20;18.30;70.50
7900;DHT22;3995;50.856;4.404;2023-10-19T05:20:47;18.30;70.50
7900;DHT22;3995;50.856;4.404;2023-10-19T05:23:15;18.30;70.50
7900;DHT22;3995;50.856;4.404;2023-10-19T05:25:42;18.30;70.60
7900;DHT22;3995;50.856;4.404;2023-10-19T05:28:10;18.30;70.50
7900;DHT22;3995;50.856;4.404;2023-10-19T05:30:37;18.30;70.50
7900;DHT22;3995;50.856;4.404;2023-10-19T05:33:04;18.30;70.60
7900;DHT22;3995;50.856;4.404;2023-10-19T05:35:31;18.30;70.60
7900;DHT22;3995;50.856;4.404;2023-10-19T05:38:00;18.30;70.60
7900;DHT22;3995;50.856;4.404;2023-10-19T05:40:28;18.30;70.70
7900;DHT22;3995;50.856;4.404;2023-10-19T05:42:56;18.30;70.80
7900;DHT22;3995;50.856;4.404;2023-10-19T05:45:28;18.30;71.40
7900;DHT22;3995;50.856;4.404;2023-10-19T05:47:55;18.30;70.80
7900;DHT22;3995;50.856;4.404;2023-10-19T05:50:22;18.30;70.80
7900;DHT22;3995;50.856;4.404;2023-10-19T05:52:49;18.30;70.90
7900;DHT22;3995;50.856;4.404;2023-10-19T05:55:17;18.30;70.80
7900;DHT22;3995;50.856;4.404;2023-10-19T05:57:47;18.20;70.70
7900;DHT22;3995;50.856;4.404;2023-10-19T06:00:15;18.30;70.90
7900;DHT22;3995;50.856;4.404;2023-10-19T06:02:46;18.30;70.90
7900;DHT22;3995;50.856;4.404;2023-10-19T06:05:14;18.30;70.90
7900;DHT22;3995;50.856;4.404;2023-10-19T06:07:42;18.30;70.90
7900;DHT22;3995;50.856;4.404;2023-10-19T06:10:13;18.30;71.00
7900;DHT22;3995;50.856;4.404;2023-10-19T06:12:43;18.30;70.90
7900;DHT22;3995;50.856;4.404;2023-10-19T06:15:11;18.30;71.00
7900;DHT22;3995;50.856;4.404;2023-10-19T06:17:38;18.30;70.90
7900;DHT22;3995;50.856;4.404;2023-10-19T06:20:09;18.30;71.00
7900;DHT22;3995;50.856;4.404;2023-10-19T06:22:46;18.30;71.00
7900;DHT22;3995;50.856;4.404;2023-10-19T06:25:16;18.30;71.00
7900;DHT22;3995;50.856;4.404;2023-10-19T06:27:45;18.30;71.10
7900;DHT22;3995;50.856;4.404;2023-10-19T06:30:12;18.30;71.10
7900;DHT22;3995;50.856;4.404;2023-10-19T06:32:45;18.30;71.20
7900;DHT22;3995;50.856;4.404;2023-10-19T06:35:14;18.30;71.20
7900;DHT22;3995;50.856;4.404;2023-10-19T06:37:41;18.30;71.30
7900;DHT22;3995;50.856;4.404;2023-10-19T06:40:09;18.30;71.20
7900;DHT22;3995;50.856;4.404;2023-10-19T06:42:37;18.30;71.20
7900;DHT22;3995;50.856;4.404;2023-10-19T06:45:05;18.30;71.30
7900;DHT22;3995;50.856;4.404;2023-10-19T06:47:33;18.30;71.30
7900;DHT22;3995;50.856;4.404;2023-10-19T06:50:04;18.30;71.20
7900;DHT22;3995;50.856;4.404;2023-10-19T06:52:34;18.20;71.20
7900;DHT22;3995;50.856;4.404;2023-10-19T06:55:03;18.30;71.30
7900;DHT22;3995;50.856;4.404;2023-10-19T06:57:30;18.30;71.30
7900;DHT22;3995;50.856;4.404;2023-10-19T06:59:58;18.30;71.30
7900;DHT22;3995;50.856;4.404;2023-10-19T07:02:25;18.30;71.30
7900;DHT22;3995;50.856;4.404;2023-10-19T07:04:52;18.30;71.30
7900;DHT22;3995;50.856;4.404;2023-10-19T07:07:22;18.30;71.30
7900;DHT22;3995;50.856;4.404;2023-10-19T07:09:52;18.30;71.30
7900;DHT22;3995;50.856;4.404;2023-10-19T07:12:19;18.30;71.40
7900;DHT22;3995;50.856;4.404;2023-10-19T07:14:46;18.30;71.40
7900;DHT22;3995;50.856;4.404;2023-10-19T07:17:13;18.30;71.40
7900;DHT22;3995;50.856;4.404;2023-10-19T07:19:42;18.30;71.40
7900;DHT22;3995;50.856;4.404;2023-10-19T07:22:10;18.30;71.40
7900;DHT22;3995;50.856;4.404;2023-10-19T07:24:37;18.30;71.40
7900;DHT22;3995;50.856;4.404;2023-10-19T07:27:06;18.30;71.40
7900;DHT22;3995;50.856;4.404;2023-10-19T07:29:33;18.30;71.40
7900;DHT22;3995;50.856;4.404;2023-10-19T07:32:01;18.30;71.40
7900;DHT22;3995;50.856;4.404;2023-10-19T07:34:31;18.30;71.40
7900;DHT22;3995;50.856;4.404;2023-10-19T07:36:58;18.30;71.40
7900;DHT22;3995;50.856;4.404;2023-10-19T07:39:26;18.30;71.70
7900;DHT22;3995;50.856;4.404;2023-10-19T07:41:55;18.30;71.50
7900;DHT22;3995;50.856;4.404;2023-10-19T07:44:24;18.30;71.50
7900;DHT22;3995;50.856;4.404;2023-10-19T07:46:51;18.30;71.60
7900;DHT22;3995;50.856;4.404;2023-10-19T07:49:19;18.30;71.60
7900;DHT22;3995;50.856;4.404;2023-10-19T07:51:50;18.30;71.60
7900;DHT22;3995;50.856;4.404;2023-10-19T07:54:17;18.30;71.60
7900;DHT22;3995;50.856;4.404;2023-10-19T07:56:46;18.30;71.60
7900;DHT22;3995;50.856;4.404;2023-10-19T07:59:15;18.30;71.70
7900;DHT22;3995;50.856;4.404;2023-10-19T08:01:44;18.30;71.70
7900;DHT22;3995;50.856;4.404;2023-10-19T08:04:11;18.30;71.70
7900;DHT22;3995;50.856;4.404;2023-10-19T08:06:38;18.30;71.60
7900;DHT22;3995;50.856;4.404;2023-10-19T08:09:05;18.30;71.60
7900;DHT22;3995;50.856;4.404;2023-10-19T08:11:32;18.30;71.70
7900;DHT22;3995;50.856;4.404;2023-10-19T08:13:59;18.30;71.70
7900;DHT22;3995;50.856;4.404;2023-10-19T08:16:29;18.30;71.70
7900;DHT22;3995;50.856;4.404;2023-10-19T08:18:58;18.30;71.70
7900;DHT22;3995;50.856;4.404;2023-10-19T08:21:25;18.40;71.90
7900;DHT22;3995;50.856;4.404;2023-10-19T08:23:54;18.40;71.90
7900;DHT22;3995;50.856;4.404;2023-10-19T08:26:21;18.40;71.90
7900;DHT22;3995;50.856;4.404;2023-10-19T08:28:48;18.40;71.80
7900;DHT22;3995;50.856;4.404;2023-10-19T08:31:15;18.40;71.80
7900;DHT22;3995;50.856;4.404;2023-10-19T08:33:42;18.40;71.80
7900;DHT22;3995;50.856;4.404;2023-10-19T08:36:18;18.40;71.80
7900;DHT22;3995;50.856;4.404;2023-10-19T08:38:46;18.50;71.80
7900;DHT22;3995;50.856;4.404;2023-10-19T08:41:13;18.40;71.80
7900;DHT22;3995;50.856;4.404;2023-10-19T08:43:41;18.40;71.70
7900;DHT22;3995;50.856;4.404;2023-10-19T08:46:10;18.50;71.80
7900;DHT22;3995;50.856;4.404;2023-10-19T08:48:38;18.50;71.80
7900;DHT22;3995;50.856;4.404;2023-10-19T08:51:09;18.50;71.80
7900;DHT22;3995;50.856;4.404;2023-10-19T08:53:38;18.50;71.80
7900;DHT22;3995;50.856;4.404;2023-10-19T08:56:10;18.50;71.90
7900;DHT22;3995;50.856;4.404;2023-10-19T08:58:38;18.50;71.90
7900;DHT22;3995;50.856;4.404;2023-10-19T09:01:06;18.50;71.80
7900;DHT22;3995;50.856;4.404;2023-10-19T09:03:35;18.50;71.80
7900;DHT22;3995;50.856;4.404;2023-10-19T09:06:05;18.50;71.80
7900;DHT22;3995;50.856;4.404;2023-10-19T09:08:32;18.50;72.20
7900;DHT22;3995;50.856;4.404;2023-10-19T09:11:07;18.50;71.90
7900;DHT22;3995;50.856;4.404;2023-10-19T09:13:47;18.60;72.00
7900;DHT22;3995;50.856;4.404;2023-10-19T09:16:16;18.50;71.90
7900;DHT22;3995;50.856;4.404;2023-10-19T09:18:43;18.60;72.00
7900;DHT22;3995;50.856;4.404;2023-10-19T09:21:14;18.60;72.00
7900;DHT22;3995;50.856;4.404;2023-10-19T09:23:49;18.60;72.00
7900;DHT22;3995;50.856;4.404;2023-10-19T09:26:18;18.60;72.00
7900;DHT22;3995;50.856;4.404;2023-10-19T09:28:47;18.60;71.90
7900;DHT22;3995;50.856;4.404;2023-10-19T09:31:15;18.60;72.00
7900;DHT22;3995;50.856;4.404;2023-10-19T09:33:43;18.60;72.80
7900;DHT22;3995;50.856;4.404;2023-10-19T09:36:11;18.60;72.80
7900;DHT22;3995;50.856;4.404;2023-10-19T09:38:39;18.70;72.60
7900;DHT22;3995;50.856;4.404;2023-10-19T09:41:12;18.70;72.40
7900;DHT22;3995;50.856;4.404;2023-10-19T09:43:43;18.70;72.20
7900;DHT22;3995;50.856;4.404;2023-10-19T09:46:12;18.70;72.20
7900;DHT22;3995;50.856;4.404;2023-10-19T09:48:41;18.70;72.80
7900;DHT22;3995;50.856;4.404;2023-10-19T09:51:13;18.70;72.10
7900;DHT22;3995;50.856;4.404;2023-10-19T09:53:45;18.70;72.00
7900;DHT22;3995;50.856;4.404;2023-10-19T09:56:19;18.70;72.00
7900;DHT22;3995;50.856;4.404;2023-10-19T09:58:51;18.70;72.00
7900;DHT22;3995;50.856;4.404;2023-10-19T10:01:19;18.70;72.00
7900;DHT22;3995;50.856;4.404;2023-10-19T10:03:49;18.70;72.00
7900;DHT22;3995;50.856;4.404;2023-10-19T10:06:17;18.70;72.00
7900;DHT22;3995;50.856;4.404;2023-10-19T10:08:53;18.70;72.00
7900;DHT22;3995;50.856;4.404;2023-10-19T10:11:22;18.70;72.00
7900;DHT22;3995;50.856;4.404;2023-10-19T10:13:56;18.80;72.20
7900;DHT22;3995;50.856;4.404;2023-10-19T10:16:25;18.80;72.10
7900;DHT22;3995;50.856;4.404;2023-10-19T10:18:55;18.80;72.00
7900;DHT22;3995;50.856;4.404;2023-10-19T10:21:24;18.80;72.00
7900;DHT22;3995;50.856;4.404;2023-10-19T10:23:53;18.90;72.00
7900;DHT22;3995;50.856;4.404;2023-10-19T10:26:21;18.90;72.00
7900;DHT22;3995;50.856;4.404;2023-10-19T10:29:10;18.90;71.90
7900;DHT22;3995;50.856;4.404;2023-10-19T10:31:42;19.00;71.60
7900;DHT22;3995;50.856;4.404;2023-10-19T10:34:10;18.90;71.80
7900;DHT22;3995;50.856;4.404;2023-10-19T10:36:57;18.90;71.90
7900;DHT22;3995;50.856;4.404;2023-10-19T10:39:25;19.00;71.60
7900;DHT22;3995;50.856;4.404;2023-10-19T10:41:55;18.90;71.70
7900;DHT22;3995;50.856;4.404;2023-10-19T10:44:38;19.00;71.80
7900;DHT22;3995;50.856;4.404;2023-10-19T10:47:07;19.00;71.70
7900;DHT22;3995;50.856;4.404;2023-10-19T10:49:52;19.00;72.00
7900;DHT22;3995;50.856;4.404;2023-10-19T10:52:26;19.00;71.80
7900;DHT22;3995;50.856;4.404;2023-10-19T10:54:55;19.00;71.90
7900;DHT22;3995;50.856;4.404;2023-10-19T10:57:22;19.00;72.00
7900;DHT22;3995;50.856;4.404;2023-10-19T11:00:03;19.00;72.10
7900;DHT22;3995;50.856;4.404;2023-10-19T11:02:34;19.00;71.90
7900;DHT22;3995;50.856;4.404;2023-10-19T11:05:01;19.00;72.10
7900;DHT22;3995;50.856;4.404;2023-10-19T11:07:28;19.00;72.00
7900;DHT22;3995;50.856;4.404;2023-10-19T11:09:56;19.00;72.00
7900;DHT22;3995;50.856;4.404;2023-10-19T11:12:23;19.00;72.10
7900;DHT22;3995;50.856;4.404;2023-10-19T11:14:53;19.00;72.10
7900;DHT22;3995;50.856;4.404;2023-10-19T11:17:22;19.00;72.00
7900;DHT22;3995;50.856;4.404;2023-10-19T11:19:55;19.00;72.00
7900;DHT22;3995;50.856;4.404;2023-10-19T11:22:30;19.00;72.10
7900;DHT22;3995;50.856;4.404;2023-10-19T11:25:17;19.00;72.00
7900;DHT22;3995;50.856;4.404;2023-10-19T11:27:44;19.10;72.10
7900;DHT22;3995;50.856;4.404;2023-10-19T11:30:13;19.00;72.20
7900;DHT22;3995;50.856;4.404;2023-10-19T11:32:42;19.00;72.30
7900;DHT22;3995;50.856;4.404;2023-10-19T11:35:11;19.00;72.40
7900;DHT22;3995;50.856;4.404;2023-10-19T11:37:46;19.00;72.50
7900;DHT22;3995;50.856;4.404;2023-10-19T11:40:13;19.10;72.60
7900;DHT22;3995;50.856;4.404;2023-10-19T11:42:40;19.00;72.70
7900;DHT22;3995;50.856;4.404;2023-10-19T11:45:08;19.00;72.70
7900;DHT22;3995;50.856;4.404;2023-10-19T11:47:37;19.00;73.30
7900;DHT22;3995;50.856;4.404;2023-10-19T11:50:07;19.00;72.80
7900;DHT22;3995;50.856;4.404;2023-10-19T11:52:38;19.00;72.80
7900;DHT22;3995;50.856;4.404;2023-10-19T11:55:06;19.00;73.00
7900;DHT22;3995;50.856;4.404;2023-10-19T11:57:35;19.10;73.00
7900;DHT22;3995;50.856;4.404;2023-10-19T12:00:02;19.00;72.90
7900;DHT22;3995;50.856;4.404;2023-10-19T12:02:35;19.00;72.90
7900;DHT22;3995;50.856;4.404;2023-10-19T12:05:05;19.00;72.90
7900;DHT22;3995;50.856;4.404;2023-10-19T12:07:36;19.10;73.20
7900;DHT22;3995;50.856;4.404;2023-10-19T12:10:05;19.00;73.20
7900;DHT22;3995;50.856;4.404;2023-10-19T12:12:34;19.10;73.40
7900;DHT22;3995;50.856;4.404;2023-10-19T12:15:02;19.10;73.40
7900;DHT22;3995;50.856;4.404;2023-10-19T12:17:30;19.10;73.40
7900;DHT22;3995;50.856;4.404;2023-10-19T12:19:57;19.10;73.50
7900;DHT22;3995;50.856;4.404;2023-10-19T12:22:28;19.10;73.60
7900;DHT22;3995;50.856;4.404;2023-10-19T12:24:58;19.10;73.60
7900;DHT22;3995;50.856;4.404;2023-10-19T12:27:25;19.10;73.70
7900;DHT22;3995;50.856;4.404;2023-10-19T12:29:52;19.10;73.50
7900;DHT22;3995;50.856;4.404;2023-10-19T12:32:20;19.10;74.10
7900;DHT22;3995;50.856;4.404;2023-10-19T12:34:48;19.10;74.10
7900;DHT22;3995;50.856;4.404;2023-10-19T12:37:18;19.10;73.60
7900;DHT22;3995;50.856;4.404;2023-10-19T12:39:47;19.10;73.70
7900;DHT22;3995;50.856;4.404;2023-10-19T12:42:14;19.10;73.90
7900;DHT22;3995;50.856;4.404;2023-10-19T12:44:41;19.20;74.20
7900;DHT22;3995;50.856;4.404;2023-10-19T12:47:11;19.20;74.40
7900;DHT22;3995;50.856;4.404;2023-10-19T12:49:39;19.20;74.60
7900;DHT22;3995;50.856;4.404;2023-10-19T12:52:07;19.20;74.60
7900;DHT22;3995;50.856;4.404;2023-10-19T12:54:34;19.20;74.60
7900;DHT22;3995;50.856;4.404;2023-10-19T12:57:04;19.30;74.70
7900;DHT22;3995;50.856;4.404;2023-10-19T12:59:33;19.30;74.50
7900;DHT22;3995;50.856;4.404;2023-10-19T13:02:03;19.30;74.50
7900;DHT22;3995;50.856;4.404;2023-10-19T13:04:30;19.30;74.40
7900;DHT22;3995;50.856;4.404;2023-10-19T13:06:57;19.30;74.50
7900;DHT22;3995;50.856;4.404;2023-10-19T13:09:25;19.30;74.30
7900;DHT22;3995;50.856;4.404;2023-10-19T13:11:57;19.40;74.20
7900;DHT22;3995;50.856;4.404;2023-10-19T13:14:26;19.40;74.40
7900;DHT22;3995;50.856;4.404;2023-10-19T13:16:53;19.40;74.40
7900;DHT22;3995;50.856;4.404;2023-10-19T13:19:20;19.40;74.40
7900;DHT22;3995;50.856;4.404;2023-10-19T13:21:50;19.40;74.30
7900;DHT22;3995;50.856;4.404;2023-10-19T13:24:18;19.40;74.20
7900;DHT22;3995;50.856;4.404;2023-10-19T13:26:46;19.40;74.40
7900;DHT22;3995;50.856;4.404;2023-10-19T13:29:13;19.40;74.20
7900;DHT22;3995;50.856;4.404;2023-10-19T13:31:42;19.40;74.30
7900;DHT22;3995;50.856;4.404;2023-10-19T13:34:14;19.40;74.40
7900;DHT22;3995;50.856;4.404;2023-10-19T13:36:48;19.40;74.30
7900;DHT22;3995;50.856;4.404;2023-10-19T13:39:17;19.50;74.30
7900;DHT22;3995;50.856;4.404;2023-10-19T13:41:44;19.40;74.30
7900;DHT22;3995;50.856;4.404;2023-10-19T13:44:11;19.50;74.20
7900;DHT22;3995;50.856;4.404;2023-10-19T13:46:38;19.50;74.30
7900;DHT22;3995;50.856;4.404;2023-10-19T13:49:06;19.50;74.20
7900;DHT22;3995;50.856;4.404;2023-10-19T13:51:35;19.50;74.00
7900;DHT22;3995;50.856;4.404;2023-10-19T13:54:02;19.50;73.90
7900;DHT22;3995;50.856;4.404;2023-10-19T13:56:29;19.40;73.80
7900;DHT22;3995;50.856;4.404;2023-10-19T13:58:56;19.50;73.70
7900;DHT22;3995;50.856;4.404;2023-10-19T14:01:24;19.50;73.50
7900;DHT22;3995;50.856;4.404;2023-10-19T14:03:54;19.50;73.60
7900;DHT22;3995;50.856;4.404;2023-10-19T14:06:22;19.50;73.70
7900;DHT22;3995;50.856;4.404;2023-10-19T14:08:51;19.50;73.80
7900;DHT22;3995;50.856;4.404;2023-10-19T14:11:18;19.50;73.80
7900;DHT22;3995;50.856;4.404;2023-10-19T14:13:47;19.50;73.80
7900;DHT22;3995;50.856;4.404;2023-10-19T14:16:15;19.50;73.70
7900;DHT22;3995;50.856;4.404;2023-10-19T14:18:43;19.50;73.70
7900;DHT22;3995;50.856;4.404;2023-10-19T14:21:11;19.50;73.70
7900;DHT22;3995;50.856;4.404;2023-10-19T14:23:40;19.50;73.60
7900;DHT22;3995;50.856;4.404;2023-10-19T14:26:09;19.40;73.60
7900;DHT22;3995;50.856;4.404;2023-10-19T14:28:36;19.50;73.70
7900;DHT22;3995;50.856;4.404;2023-10-19T14:31:03;19.50;73.70
7900;DHT22;3995;50.856;4.404;2023-10-19T14:33:33;19.50;73.70
7900;DHT22;3995;50.856;4.404;2023-10-19T14:36:02;19.40;73.60
7900;DHT22;3995;50.856;4.404;2023-10-19T14:38:29;19.50;73.70
7900;DHT22;3995;50.856;4.404;2023-10-19T14:40:59;19.50;73.60
7900;DHT22;3995;50.856;4.404;2023-10-19T14:43:26;19.50;73.50
7900;DHT22;3995;50.856;4.404;2023-10-19T14:45:55;19.50;73.60
7900;DHT22;3995;50.856;4.404;2023-10-19T14:48:22;19.50;73.50
7900;DHT22;3995;50.856;4.404;2023-10-19T14:50:50;19.50;73.50
7900;DHT22;3995;50.856;4.404;2023-10-19T14:53:20;19.50;73.50
7900;DHT22;3995;50.856;4.404;2023-10-19T14:55:47;19.50;73.50
7900;DHT22;3995;50.856;4.404;2023-10-19T14:58:17;19.50;73.50
7900;DHT22;3995;50.856;4.404;2023-10-19T15:00:44;19.50;73.50
7900;DHT22;3995;50.856;4.404;2023-10-19T15:03:14;19.50;73.50
7900;DHT22;3995;50.856;4.404;2023-10-19T15:05:44;19.50;73.50
7900;DHT22;3995;50.856;4.404;2023-10-19T15:08:11;19.50;73.40
7900;DHT22;3995;50.856;4.404;2023-10-19T15:10:40;19.50;73.30
7900;DHT22;3995;50.856;4.404;2023-10-19T15:13:08;19.50;73.20
7900;DHT22;3995;50.856;4.404;2023-10-19T15:15:36;19.50;73.10
7900;DHT22;3995;50.856;4.404;2023-10-19T15:18:04;19.50;73.00
7900;DHT22;3995;50.856;4.404;2023-10-19T15:20:31;19.50;72.90
7900;DHT22;3995;50.856;4.404;2023-10-19T15:22:59;19.50;72.90
7900;DHT22;3995;50.856;4.404;2023-10-19T15:25:26;19.50;72.80
7900;DHT22;3995;50.856;4.404;2023-10-19T15:27:54;19.50;72.80
7900;DHT22;3995;50.856;4.404;2023-10-19T15:30:22;19.50;72.70
7900;DHT22;3995;50.856;4.404;2023-10-19T15:32:52;19.50;72.60
7900;DHT22;3995;50.856;4.404;2023-10-19T15:35:19;19.50;72.50
7900;DHT22;3995;50.856;4.404;2023-10-19T15:37:53;19.50;72.50
7900;DHT22;3995;50.856;4.404;2023-10-19T15:40:24;19.50;72.40
7900;DHT22;3995;50.856;4.404;2023-10-19T15:42:52;19.50;72.30
7900;DHT22;3995;50.856;4.404;2023-10-19T15:45:20;19.50;72.30
7900;DHT22;3995;50.856;4.404;2023-10-19T15:47:47;19.50;72.20
7900;DHT22;3995;50.856;4.404;2023-10-19T15:50:15;19.50;72.30
7900;DHT22;3995;50.856;4.404;2023-10-19T15:52:43;19.50;72.20
7900;DHT22;3995;50.856;4.404;2023-10-19T15:55:10;19.50;72.20
7900;DHT22;3995;50.856;4.404;2023-10-19T15:57:38;19.50;72.20
7900;DHT22;3995;50.856;4.404;2023-10-19T16:00:07;19.50;72.20
7900;DHT22;3995;50.856;4.404;2023-10-19T16:02:39;19.50;72.20
7900;DHT22;3995;50.856;4.404;2023-10-19T16:05:06;19.50;72.20
7900;DHT22;3995;50.856;4.404;2023-10-19T16:07:35;19.50;72.20
7900;DHT22;3995;50.856;4.404;2023-10-19T16:10:05;19.50;72.10
7900;DHT22;3995;50.856;4.404;2023-10-19T16:12:34;19.50;72.10
7900;DHT22;3995;50.856;4.404;2023-10-19T16:15:01;19.40;72.00
7900;DHT22;3995;50.856;4.404;2023-10-19T16:17:28;19.50;72.10